Knoxville (TYS/KTYS)

Map

Destinations

Information

Location
Knoxville, TN
Local Time
22:27 / 10:27 pm
GMT Time
02:27 / 2:27 am
Gates
Unassigned
No FAA reported delays
METAR KTYS 280153Z 16007KT 6SM -RA FEW025 BKN080 OVC095 16/14 A2995 RMK AO2 PK WND 27026/0102 LTG DSNT NE-S TSE24 SLP137 OCNL LTG DSNT NE AND S CB DSNT NE AND S P0019 T01610139
TAF KTYS 272336Z 2800/2824 21012KT 5SM -TSRA BR BKN040CB OVC090 TEMPO 2800/2802 2SM TSRA BR OVC035CB FM280200 23007KT P6SM VCTS SCT040CB BKN100 FM280600 23007KT 5SM -SHRA VCTS BKN035CB FM280900 23005KT P6SM VCSH BKN030 FM281500 25010KT P6SM BKN035 FM282000 27012KT P6SM SCT040
  • No charts available